createdAt,value
2018-12-21T00:02:44.421Z,100252.59
2018-12-21T00:05:47.540Z,100253.91
2018-12-21T00:08:52.996Z,100252.33
2018-12-21T00:11:56.205Z,100255.70
2018-12-21T00:14:59.527Z,100247.39
2018-12-21T00:18:02.799Z,100247.03
2018-12-21T00:21:05.966Z,100251.20
2018-12-21T00:24:09.662Z,100247.23
2018-12-21T00:27:13.180Z,100251.30
2018-12-21T00:30:21.636Z,100252.99
2018-12-21T00:33:30.637Z,100244.98
2018-12-21T00:36:39.325Z,100247.03
2018-12-21T00:39:48.454Z,100240.25
2018-12-21T00:42:57.320Z,100248.09
2018-12-21T00:46:05.919Z,100242.90
2018-12-21T00:49:09.185Z,100241.58
2018-12-21T00:52:12.547Z,100238.93
2018-12-21T00:55:15.580Z,100240.95
2018-12-21T00:58:18.908Z,100234.89
2018-12-21T01:01:22.384Z,100233.10
2018-12-21T01:04:25.752Z,100242.94
2018-12-21T01:07:28.752Z,100237.28
2018-12-21T01:10:31.710Z,100232.44
2018-12-21T01:13:34.835Z,100235.95
2018-12-21T01:16:38.003Z,100235.19
2018-12-21T01:19:41.007Z,100239.75
2018-12-21T01:22:44.056Z,100234.83
2018-12-21T01:25:47.114Z,100234.46
2018-12-21T01:28:50.071Z,100235.42
2018-12-21T01:31:53.027Z,100231.05
2018-12-21T01:34:56.050Z,100233.70
2018-12-21T01:37:59.272Z,100229.37
2018-12-21T01:41:03.303Z,100235.62
2018-12-21T01:44:06.441Z,100232.97
2018-12-21T01:47:09.402Z,100232.21
2018-12-21T01:50:12.675Z,100233.17
2018-12-21T01:53:16.435Z,100227.88
2018-12-21T01:56:20.991Z,100227.88
2018-12-21T01:59:24.570Z,100227.12
2018-12-21T02:02:28.116Z,100222.78
2018-12-21T02:05:32.650Z,100224.20
2018-12-21T02:08:36.559Z,100223.34
2018-12-21T02:11:40.038Z,100215.80
2018-12-21T02:14:43.811Z,100211.43
2018-12-21T02:17:47.369Z,100218.45
2018-12-21T02:20:50.978Z,100222.61
2018-12-21T02:23:54.429Z,100226.59
2018-12-21T02:26:58.134Z,100216.56
2018-12-21T02:30:01.510Z,100220.53
2018-12-21T02:33:05.141Z,100215.83
2018-12-21T02:36:08.648Z,100205.61
2018-12-21T02:39:12.338Z,100202.70
2018-12-21T02:42:16.128Z,100195.98
2018-12-21T02:45:19.141Z,100199.02
2018-12-21T02:48:22.529Z,100200.71
2018-12-21T02:51:25.899Z,100206.00
2018-12-21T02:54:29.231Z,100193.53
2018-12-21T02:57:33.063Z,100200.71
2018-12-21T03:00:36.714Z,100191.08
2018-12-21T03:03:40.284Z,100192.05
2018-12-21T03:06:43.684Z,100185.98
2018-12-21T03:09:47.110Z,100184.11
2018-12-21T03:12:51.975Z,100178.81
2018-12-21T03:15:55.336Z,100178.41
2018-12-21T03:18:59.433Z,100173.13
2018-12-21T03:22:02.972Z,100170.11
2018-12-21T03:25:06.410Z,100175.50
2018-12-21T03:28:10.737Z,100165.78
2018-12-21T03:31:15.697Z,100157.64
2018-12-21T03:34:19.497Z,100158.97
2018-12-21T03:37:23.456Z,100156.32
2018-12-21T03:40:26.966Z,100153.67
2018-12-21T03:43:30.340Z,100151.98
2018-12-21T03:46:33.591Z,100150.66
2018-12-21T03:49:38.905Z,100143.32
2018-12-21T03:52:43.500Z,100143.32
2018-12-21T03:55:47.664Z,100148.31
2018-12-21T03:58:51.246Z,100137.73
2018-12-21T04:01:55.371Z,100136.91
2018-12-21T04:04:58.582Z,100134.72
2018-12-21T04:08:01.715Z,100141.60
2018-12-21T04:11:04.762Z,100133.86
2018-12-21T04:14:07.964Z,100137.47
2018-12-21T04:17:11.053Z,100137.63
2018-12-21T04:20:14.408Z,100123.28
2018-12-21T04:23:17.431Z,100132.17
2018-12-21T04:26:20.448Z,100119.05
2018-12-21T04:29:23.523Z,100122.55
2018-12-21T04:32:26.495Z,100110.75
2018-12-21T04:35:29.668Z,100114.25
2018-12-21T04:38:32.966Z,100113.86
2018-12-21T04:41:36.043Z,100119.15
2018-12-21T04:44:39.143Z,100109.52
2018-12-21T04:47:42.092Z,100106.12
2018-12-21T04:50:45.155Z,100104.23
2018-12-21T04:53:49.298Z,100097.63
2018-12-21T04:56:52.511Z,100098.94
2018-12-21T04:59:55.619Z,100090.25
2018-12-21T05:02:58.644Z,100088.53
2018-12-21T05:06:02.745Z,100084.56
2018-12-21T05:09:06.413Z,100088.53
2018-12-21T05:12:11.503Z,100091.77
2018-12-21T05:15:14.608Z,100085.16
2018-12-21T05:18:18.667Z,100089.48
2018-12-21T05:21:22.808Z,100085.98
2018-12-21T05:24:25.814Z,100083.44
2018-12-21T05:27:28.972Z,100087.04
2018-12-21T05:30:32.204Z,100086.08
2018-12-21T05:33:35.191Z,100081.75
2018-12-21T05:36:38.627Z,100075.80
2018-12-21T05:39:41.720Z,100077.52
2018-12-21T05:42:47.971Z,100071.47
2018-12-21T05:45:50.934Z,100076.20
2018-12-21T05:48:53.904Z,100072.33
2018-12-21T05:51:58.036Z,100069.69
2018-12-21T05:55:01.222Z,100066.67
2018-12-21T05:58:05.234Z,100075.34
2018-12-21T06:01:08.294Z,100062.71
2018-12-21T06:04:11.444Z,100062.71
2018-12-21T06:07:14.619Z,100055.34
2018-12-21T06:10:18.727Z,100043.44
2018-12-21T06:13:21.717Z,100040.03
2018-12-21T06:16:24.758Z,100035.14
2018-12-21T06:19:27.705Z,100030.78
2018-12-21T06:22:31.761Z,100028.99
2018-12-21T06:25:35.203Z,100029.45
2018-12-21T06:28:38.205Z,100019.84
2018-12-21T06:31:41.435Z,100020.30
2018-12-21T06:34:44.704Z,100008.41
2018-12-21T06:37:49.721Z,100001.89
2018-12-21T06:40:52.668Z,99991.31
2018-12-21T06:43:55.793Z,99984.34
2018-12-21T06:46:59.821Z,99984.83
2018-12-21T06:50:03.123Z,99986.98
2018-12-21T06:53:06.364Z,99990.22
2018-12-21T06:56:09.402Z,99981.53
2018-12-21T06:59:12.542Z,99979.65
2018-12-21T07:02:15.667Z,99980.97
2018-12-21T07:05:18.859Z,99971.32
2018-12-21T07:08:21.855Z,99977.20
2018-12-21T07:11:25.388Z,99968.31
2018-12-21T07:14:29.130Z,99972.28
2018-12-21T07:17:32.750Z,99973.03
2018-12-21T07:20:36.382Z,99970.00
2018-12-21T07:23:40.864Z,99968.31
2018-12-21T07:26:44.322Z,99966.62
2018-12-21T07:29:48.196Z,99959.62
2018-12-21T07:32:52.149Z,99962.66
2018-12-21T07:35:55.871Z,99964.09
2018-12-21T07:38:59.512Z,99956.16
2018-12-21T07:42:03.259Z,99949.91
2018-12-21T07:45:08.209Z,99948.78
2018-12-21T07:48:11.843Z,99946.41
2018-12-21T07:51:16.392Z,99943.39
2018-12-21T07:54:20.018Z,99944.72
2018-12-21T07:57:23.665Z,99939.43
2018-12-21T08:00:27.235Z,99941.25
2018-12-21T08:03:30.411Z,99941.71
2018-12-21T08:06:33.842Z,99934.34
2018-12-21T08:09:37.068Z,99929.81
2018-12-21T08:12:41.048Z,99931.70
2018-12-21T08:15:44.650Z,99923.77
2018-12-21T08:18:48.247Z,99924.52
2018-12-21T08:21:51.696Z,99924.16
2018-12-21T08:24:55.081Z,99916.80
2018-12-21T08:27:58.695Z,99912.83
2018-12-21T08:31:02.209Z,99912.83
2018-12-21T08:34:05.739Z,99907.55
2018-12-21T08:37:09.037Z,99901.03
2018-12-21T08:40:12.515Z,99900.94
2018-12-21T08:43:16.003Z,99893.86
2018-12-21T08:46:19.596Z,99893.00
2018-12-21T08:49:22.886Z,99887.72
2018-12-21T08:52:26.463Z,99888.18
2018-12-21T08:55:29.734Z,99875.56
2018-12-21T08:58:33.188Z,99874.59
2018-12-21T09:01:37.691Z,99864.98
2018-12-21T09:04:41.445Z,99859.30
2018-12-21T09:07:45.203Z,99846.84
2018-12-21T09:10:48.693Z,99838.91
2018-12-21T09:13:54.580Z,99832.41
2018-12-21T09:16:58.082Z,99823.75
2018-12-21T09:20:01.817Z,99817.50
2018-12-21T09:23:05.328Z,99808.25
2018-12-21T09:26:09.755Z,99799.10
2018-12-21T09:29:13.401Z,99792.03
2018-12-21T09:32:16.885Z,99790.70
2018-12-21T09:35:20.623Z,99797.88
2018-12-21T09:38:24.299Z,99788.63
2018-12-21T09:41:27.540Z,99779.73
2018-12-21T09:44:31.010Z,99771.45
2018-12-21T09:47:34.390Z,99768.80
2018-12-21T09:50:39.048Z,99756.55
2018-12-21T09:53:42.363Z,99747.30
2018-12-21T09:56:45.827Z,99746.33
2018-12-21T09:59:49.083Z,99739.47
2018-12-21T10:02:52.665Z,99733.58
2018-12-21T10:05:56.431Z,99724.44
2018-12-21T10:09:00.109Z,99720.86
2018-12-21T10:12:04.267Z,99717.36
2018-12-21T10:15:08.959Z,99713.86
2018-12-21T10:18:12.668Z,99717.00
2018-12-21T10:21:16.236Z,99692.36
2018-12-21T10:24:19.395Z,99697.54
2018-12-21T10:27:23.427Z,99686.97
2018-12-21T10:30:27.225Z,99686.64
2018-12-21T10:33:30.835Z,99684.14
2018-12-21T10:36:34.482Z,99659.48
2018-12-21T10:39:38.088Z,99662.03
2018-12-21T10:42:41.547Z,99651.23
2018-12-21T10:45:46.108Z,99638.02
2018-12-21T10:48:49.658Z,99645.73
2018-12-21T10:51:53.102Z,99641.77
2018-12-21T10:54:58.810Z,99625.15
2018-12-21T10:58:02.389Z,99609.56
2018-12-21T11:01:05.831Z,99595.38
2018-12-21T11:04:09.443Z,99592.84
2018-12-21T11:07:12.928Z,99580.38
2018-12-21T11:10:16.324Z,99574.23
2018-12-21T11:13:23.908Z,99557.51
2018-12-21T11:16:27.344Z,99542.39
2018-12-21T11:19:30.972Z,99524.34
2018-12-21T11:22:34.518Z,99526.52
2018-12-21T11:25:37.826Z,99522.56
2018-12-21T11:28:41.111Z,99505.26
2018-12-21T11:31:45.216Z,99501.76
2018-12-21T11:34:48.343Z,99491.69
2018-12-21T11:37:52.456Z,99483.99
2018-12-21T11:40:55.474Z,99479.64
2018-12-21T11:43:59.567Z,99478.20
2018-12-21T11:47:02.696Z,99481.34
2018-12-21T11:50:07.809Z,99479.19
2018-12-21T11:53:11.915Z,99469.91
2018-12-21T11:56:15.046Z,99455.13
2018-12-21T11:59:18.066Z,99448.52
2018-12-21T12:02:22.199Z,99446.46
2018-12-21T12:05:25.298Z,99435.89
2018-12-21T12:08:28.500Z,99422.31
2018-12-21T12:11:31.563Z,99419.31
2018-12-21T12:14:34.595Z,99409.56
2018-12-21T12:17:37.751Z,99408.23
2018-12-21T12:20:40.867Z,99391.31
2018-12-21T12:23:44.997Z,99374.14
2018-12-21T12:26:48.068Z,99365.23
2018-12-21T12:29:51.167Z,99367.41
2018-12-21T12:32:54.238Z,99344.08
2018-12-21T12:35:58.345Z,99351.28
2018-12-21T12:39:01.332Z,99336.39
2018-12-21T12:45:17.525Z,99322.43
2018-12-21T12:48:20.827Z,99307.77
2018-12-21T12:51:23.958Z,99306.09
2018-12-21T12:54:27.323Z,99295.05
2018-12-21T12:57:30.423Z,99285.69
2018-12-21T13:00:33.607Z,99277.75
2018-12-21T13:03:36.906Z,99280.62
2018-12-21T13:06:41.140Z,99275.22
2018-12-21T13:09:48.023Z,99275.22
2018-12-21T13:12:51.289Z,99263.20
2018-12-21T13:16:00.463Z,99253.33
2018-12-21T13:19:03.513Z,99246.24
2018-12-21T13:22:07.656Z,99238.19
2018-12-21T13:25:17.306Z,99230.73
2018-12-21T13:28:21.517Z,99217.03
2018-12-21T13:31:24.812Z,99211.28
2018-12-21T13:34:28.011Z,99211.74
2018-12-21T13:37:32.070Z,99195.88
2018-12-21T13:40:37.323Z,99189.73
2018-12-21T13:43:40.279Z,99177.84
2018-12-21T13:46:43.381Z,99178.46
2018-12-21T13:49:46.544Z,99177.14
2018-12-21T13:52:49.628Z,99173.30
2018-12-21T13:55:53.776Z,99163.42
2018-12-21T13:58:56.908Z,99162.25
2018-12-21T14:02:00.051Z,99150.70
2018-12-21T14:05:03.162Z,99150.21
2018-12-21T14:08:07.309Z,99135.66
2018-12-21T14:11:11.454Z,99136.97
2018-12-21T14:14:16.845Z,99125.08
2018-12-21T14:17:23.799Z,99114.37
2018-12-21T14:20:26.799Z,99104.11
2018-12-21T14:23:29.967Z,99100.97
2018-12-21T14:26:32.976Z,99089.41
2018-12-21T14:29:36.156Z,99088.77
2018-12-21T14:32:41.194Z,99085.87
2018-12-21T14:35:44.299Z,99084.77
2018-12-21T14:38:47.476Z,99074.75
2018-12-21T14:41:50.533Z,99072.45
2018-12-21T14:44:53.562Z,99068.91
2018-12-21T14:47:57.695Z,99062.38
2018-12-21T14:51:01.791Z,99056.14
2018-12-21T14:54:04.914Z,99057.20
2018-12-21T14:57:08.074Z,99043.20
2018-12-21T15:00:13.230Z,99042.47
2018-12-21T15:03:16.322Z,99012.93
2018-12-21T15:06:20.340Z,99011.85
2018-12-21T15:09:23.583Z,99001.61
2018-12-21T15:12:26.815Z,99007.02
2018-12-21T15:15:30.024Z,98998.94
2018-12-21T15:18:33.144Z,98989.27
2018-12-21T15:21:36.199Z,98996.23
2018-12-21T15:24:39.435Z,98988.75
2018-12-21T15:27:43.392Z,98996.91
2018-12-21T15:30:46.493Z,99000.10
2018-12-21T15:33:49.698Z,98982.75
2018-12-21T15:36:52.683Z,98979.36
2018-12-21T15:39:55.895Z,98980.05
2018-12-21T15:42:58.860Z,98963.95
2018-12-21T15:46:02.983Z,98959.30
2018-12-21T15:49:06.088Z,98950.23
2018-12-21T15:52:09.438Z,98956.11
2018-12-21T15:55:12.630Z,98941.75
2018-12-21T15:58:15.866Z,98931.08
2018-12-21T16:01:18.858Z,98926.13
2018-12-21T16:04:22.147Z,98933.80
2018-12-21T16:07:25.250Z,98916.91
2018-12-21T16:10:28.435Z,98917.02
2018-12-21T16:13:32.443Z,98918.34
2018-12-21T16:16:35.535Z,98918.68
2018-12-21T16:19:38.775Z,98915.05
2018-12-21T16:22:42.625Z,98897.27
2018-12-21T16:25:45.943Z,98905.22
2018-12-21T16:28:50.239Z,98891.83
2018-12-21T16:31:53.227Z,98900.59
2018-12-21T16:34:56.359Z,98887.06
2018-12-21T16:37:59.570Z,98885.47
2018-12-21T16:41:02.757Z,98873.40
2018-12-21T16:44:05.704Z,98878.59
2018-12-21T16:47:10.108Z,98876.65
2018-12-21T16:50:13.809Z,98879.02
2018-12-21T16:53:16.930Z,98873.78
2018-12-21T16:56:20.029Z,98881.23
2018-12-21T16:59:23.148Z,98892.68
2018-12-21T17:02:26.212Z,98867.83
2018-12-21T17:05:30.311Z,98867.69
2018-12-21T17:08:34.568Z,98875.16
2018-12-21T17:11:37.552Z,98864.81
2018-12-21T17:14:40.649Z,98858.06
2018-12-21T17:17:43.909Z,98870.00
2018-12-21T17:20:46.999Z,98860.38
2018-12-21T17:23:50.632Z,98866.78
2018-12-21T17:26:53.807Z,98857.13
2018-12-21T17:29:57.936Z,98847.89
2018-12-21T17:33:01.044Z,98840.69
2018-12-21T17:36:05.222Z,98840.73
2018-12-21T17:39:08.685Z,98848.41
2018-12-21T17:42:12.779Z,98843.14
2018-12-21T17:45:15.859Z,98847.72
2018-12-21T17:48:19.944Z,98840.28
2018-12-21T17:51:22.960Z,98828.70
2018-12-21T17:54:26.052Z,98834.76
2018-12-21T17:57:29.038Z,98853.72
2018-12-21T18:00:33.033Z,98838.83
2018-12-21T18:03:45.822Z,98845.17
2018-12-21T18:06:49.039Z,98833.60
2018-12-21T18:09:53.231Z,98851.89
2018-12-21T18:12:57.538Z,98842.64
2018-12-21T18:16:00.784Z,98839.36
2018-12-21T18:19:03.775Z,98840.39
2018-12-21T18:22:13.551Z,98851.20
2018-12-21T18:25:19.996Z,98848.11
2018-12-21T18:28:27.313Z,98846.97
2018-12-21T18:31:42.776Z,98852.47
2018-12-21T18:34:45.839Z,98853.16
2018-12-21T18:37:56.282Z,98841.39
2018-12-21T18:41:01.259Z,98851.58
2018-12-21T18:44:04.314Z,98854.23
2018-12-21T18:47:07.547Z,98855.89
2018-12-21T18:50:11.707Z,98862.58
2018-12-21T18:53:14.851Z,98866.92
2018-12-21T18:56:21.923Z,98860.65
2018-12-21T18:59:25.044Z,98860.36
2018-12-21T19:02:28.308Z,98854.38
2018-12-21T19:05:31.330Z,98839.13
2018-12-21T19:08:34.394Z,98843.78
2018-12-21T19:11:37.495Z,98848.47
2018-12-21T19:14:41.923Z,98845.33
2018-12-21T19:17:45.351Z,98860.13
2018-12-21T19:20:48.324Z,98843.19
2018-12-21T19:23:51.293Z,98860.16
2018-12-21T19:26:56.527Z,98862.19
2018-12-21T19:29:59.522Z,98860.34
2018-12-21T19:33:02.502Z,98864.03
2018-12-21T19:36:05.612Z,98867.20
2018-12-21T19:42:23.436Z,98879.20
2018-12-21T19:45:26.444Z,98868.27
2018-12-21T19:48:29.531Z,98858.96
2018-12-21T19:51:32.633Z,98862.62
2018-12-21T19:54:35.972Z,98862.98
2018-12-21T19:57:39.012Z,98864.16
2018-12-21T20:00:42.135Z,98875.61
2018-12-21T20:03:45.310Z,98855.03
2018-12-21T20:06:48.401Z,98864.04
2018-12-21T20:09:52.404Z,98865.37
2018-12-21T20:12:55.586Z,98848.42
2018-12-21T20:15:58.783Z,98878.36
2018-12-21T20:19:02.072Z,98869.39
2018-12-21T20:22:05.275Z,98875.04
2018-12-21T20:25:09.752Z,98874.04
2018-12-21T20:28:12.799Z,98886.00
2018-12-21T20:31:17.117Z,98876.06
2018-12-21T20:34:20.219Z,98887.39
2018-12-21T20:37:23.207Z,98884.34
2018-12-21T20:40:26.171Z,98874.70
2018-12-21T20:43:33.287Z,98858.91
2018-12-21T20:46:36.411Z,98875.00
2018-12-21T20:49:39.719Z,98879.69
2018-12-21T20:52:42.851Z,98897.45
2018-12-21T20:55:45.828Z,98890.95
2018-12-21T20:58:53.395Z,98899.56
2018-12-21T21:01:56.659Z,98915.48
2018-12-21T21:04:59.726Z,98911.16
2018-12-21T21:08:02.923Z,98910.17
2018-12-21T21:11:06.926Z,98918.98
2018-12-21T21:17:24.338Z,98937.12
2018-12-21T21:20:27.378Z,98940.78
2018-12-21T21:23:30.502Z,98945.09
2018-12-21T21:26:34.487Z,98949.08
2018-12-21T21:29:37.711Z,98944.73
2018-12-21T21:32:40.867Z,98938.08
2018-12-21T21:35:43.932Z,98939.08
2018-12-21T21:38:47.871Z,98939.92
2018-12-21T21:41:53.104Z,98954.70
2018-12-21T21:44:56.239Z,98965.95
2018-12-21T21:47:59.182Z,98974.93
2018-12-21T21:51:02.353Z,98982.20
2018-12-21T21:54:05.401Z,98973.89
2018-12-21T21:57:08.478Z,98980.20
2018-12-21T22:00:13.217Z,99002.10
2018-12-21T22:03:16.233Z,98999.11
2018-12-21T22:06:19.455Z,98999.92
2018-12-21T22:09:22.462Z,99001.77
2018-12-21T22:12:25.495Z,98980.98
2018-12-21T22:15:28.551Z,98981.13
2018-12-21T22:18:33.575Z,98989.39
2018-12-21T22:21:36.656Z,98994.05
2018-12-21T22:24:39.855Z,98976.40
2018-12-21T22:27:47.948Z,98985.88
2018-12-21T22:30:49.822Z,98983.38
2018-12-21T22:33:52.944Z,98985.18
2018-12-21T22:36:55.983Z,98993.30
2018-12-21T22:39:59.015Z,98994.77
2018-12-21T22:43:01.984Z,98996.95
2018-12-21T22:46:05.056Z,98998.76
2018-12-21T22:49:08.336Z,98992.41
2018-12-21T22:52:11.362Z,98993.92
2018-12-21T22:55:14.358Z,99005.69
2018-12-21T22:58:17.338Z,99007.02
2018-12-21T23:01:20.809Z,99005.69
2018-12-21T23:04:23.814Z,99015.84
2018-12-21T23:07:26.819Z,99013.52
2018-12-21T23:10:30.941Z,99012.33
2018-12-21T23:13:37.704Z,99010.86
2018-12-21T23:16:40.891Z,99010.02
2018-12-21T23:19:44.104Z,99004.36
2018-12-21T23:22:47.290Z,99011.86
2018-12-21T23:25:50.326Z,99016.47
2018-12-21T23:28:53.575Z,99030.12
2018-12-21T23:31:56.571Z,99028.42
2018-12-21T23:34:59.752Z,99032.78
2018-12-21T23:38:02.747Z,99033.73
2018-12-21T23:41:05.739Z,99027.09
2018-12-21T23:44:09.862Z,99034.73
2018-12-21T23:47:13.073Z,99036.39
2018-12-21T23:50:16.178Z,99050.20
2018-12-21T23:53:19.227Z,99049.97
2018-12-21T23:56:22.327Z,99048.16
2018-12-21T23:59:25.579Z,99053.33
